createdAt,value
2022-11-24T00:02:44.338Z,4.80
2022-11-24T00:08:39.547Z,4.43
2022-11-24T00:14:33.580Z,4.20
2022-11-24T00:20:28.798Z,4.13
2022-11-24T00:26:25.682Z,4.20
2022-11-24T00:32:19.303Z,3.67
2022-11-24T00:38:14.486Z,3.50
2022-11-24T00:44:08.894Z,3.60
2022-11-24T00:50:02.501Z,3.90
2022-11-24T00:55:58.110Z,3.40
2022-11-24T01:01:51.833Z,3.50
2022-11-24T01:07:45.507Z,4.27
2022-11-24T01:13:40.799Z,3.90
2022-11-24T01:19:34.764Z,3.97
2022-11-24T01:25:28.660Z,3.60
2022-11-24T01:31:24.743Z,4.47
2022-11-24T01:37:18.420Z,3.83
2022-11-24T01:43:18.197Z,3.80
2022-11-24T01:49:16.551Z,3.57
2022-11-24T01:55:14.996Z,4.07
2022-11-24T02:01:08.757Z,3.80
2022-11-24T02:07:06.863Z,3.87
2022-11-24T02:13:01.632Z,4.13
2022-11-24T02:18:55.669Z,3.67
2022-11-24T02:24:56.413Z,3.67
2022-11-24T02:30:52.253Z,3.10
2022-11-24T02:36:46.354Z,3.50
2022-11-24T02:42:44.539Z,3.47
2022-11-24T02:48:39.666Z,3.83
2022-11-24T02:54:33.837Z,3.93
2022-11-24T03:00:27.797Z,4.50
2022-11-24T03:06:22.838Z,4.00
2022-11-24T03:12:16.095Z,3.90
2022-11-24T03:18:09.795Z,4.13
2022-11-24T03:24:04.969Z,4.57
2022-11-24T03:29:58.582Z,3.40
2022-11-24T03:35:52.212Z,3.97
2022-11-24T03:41:47.201Z,4.90
2022-11-24T03:47:40.786Z,3.93
2022-11-24T03:53:35.381Z,4.43
2022-11-24T03:59:30.019Z,3.80
2022-11-24T04:05:25.599Z,4.17
2022-11-24T04:11:33.079Z,3.17
2022-11-24T04:17:28.810Z,4.37
2022-11-24T04:23:22.479Z,3.70
2022-11-24T04:29:15.969Z,3.43
2022-11-24T04:35:11.333Z,4.10
2022-11-24T04:41:05.906Z,3.90
2022-11-24T04:46:59.464Z,3.50
2022-11-24T04:52:54.475Z,3.57
2022-11-24T04:58:49.872Z,4.00
2022-11-24T05:04:43.538Z,3.60
2022-11-24T05:10:38.547Z,4.00
2022-11-24T05:16:31.640Z,3.50
2022-11-24T05:22:25.175Z,3.30
2022-11-24T05:28:20.200Z,3.63
2022-11-24T05:34:14.605Z,3.67
2022-11-24T05:40:09.367Z,3.40
2022-11-24T05:46:04.187Z,4.07
2022-11-24T05:51:57.653Z,4.07
2022-11-24T05:57:50.640Z,4.50
2022-11-24T06:03:45.450Z,3.90
2022-11-24T06:09:39.212Z,3.93
2022-11-24T06:15:32.619Z,3.90
2022-11-24T06:21:27.426Z,3.80
2022-11-24T06:27:20.981Z,4.23
2022-11-24T06:33:14.327Z,3.77
2022-11-24T06:39:09.666Z,5.53
2022-11-24T06:45:08.785Z,5.10
2022-11-24T06:51:06.369Z,4.30
2022-11-24T06:57:01.641Z,4.03
2022-11-24T07:02:54.734Z,4.33
2022-11-24T07:08:48.402Z,4.40
2022-11-24T07:14:43.253Z,3.83
2022-11-24T07:20:37.778Z,4.07
2022-11-24T07:26:30.858Z,4.77
2022-11-24T07:32:25.674Z,4.47
2022-11-24T07:38:19.078Z,4.67
2022-11-24T07:44:13.611Z,5.03
2022-11-24T07:50:10.452Z,4.10
2022-11-24T07:56:05.902Z,5.60
2022-11-24T08:01:59.453Z,3.73
2022-11-24T08:07:54.395Z,4.03
2022-11-24T08:13:48.325Z,3.47
2022-11-24T08:19:41.853Z,4.77
2022-11-24T08:25:37.246Z,4.13
2022-11-24T08:31:34.216Z,4.33
2022-11-24T08:37:29.713Z,4.53
2022-11-24T08:43:24.127Z,3.27
2022-11-24T08:49:19.282Z,3.60
2022-11-24T08:55:12.993Z,4.03
2022-11-24T09:01:09.466Z,3.70
2022-11-24T09:07:02.910Z,4.80
2022-11-24T09:12:56.326Z,4.20
2022-11-24T09:18:56.431Z,3.50
2022-11-24T09:24:49.502Z,4.20
2022-11-24T09:30:43.070Z,3.40
2022-11-24T09:36:38.170Z,3.70
2022-11-24T09:42:46.950Z,3.70
2022-11-24T09:48:47.513Z,3.90
2022-11-24T09:54:51.570Z,3.77
2022-11-24T10:00:45.589Z,3.70
2022-11-24T10:06:43.211Z,3.47
2022-11-24T10:12:50.044Z,4.33
2022-11-24T10:18:51.618Z,3.93
2022-11-24T10:25:00.180Z,4.40
2022-11-24T10:31:06.823Z,4.63
2022-11-24T10:37:05.501Z,4.33
2022-11-24T10:42:59.165Z,3.90
2022-11-24T10:48:58.607Z,4.47
2022-11-24T10:54:57.534Z,4.23
2022-11-24T11:00:51.112Z,4.40
2022-11-24T11:06:46.077Z,4.40
2022-11-24T11:12:44.377Z,4.00
2022-11-24T11:18:38.394Z,5.20
2022-11-24T11:24:33.590Z,4.40
2022-11-24T11:36:46.236Z,4.70
2022-11-24T11:43:01.885Z,4.00
2022-11-24T11:48:56.602Z,4.87
2022-11-24T11:55:29.914Z,4.20
2022-11-24T12:01:43.083Z,4.30
2022-11-24T12:07:53.131Z,4.33
2022-11-24T12:13:58.755Z,4.80
2022-11-24T12:20:08.404Z,4.03
2022-11-24T12:26:09.356Z,4.43
2022-11-24T12:32:12.669Z,3.80
2022-11-24T12:38:22.941Z,4.63
2022-11-24T12:44:33.512Z,4.00
2022-11-24T12:50:30.653Z,3.77
2022-11-24T12:56:32.160Z,5.17
2022-11-24T13:02:38.978Z,4.17
2022-11-24T13:08:33.264Z,3.80
2022-11-24T13:14:31.753Z,4.00
2022-11-24T13:20:27.858Z,3.47
2022-11-24T13:26:32.423Z,3.30
2022-11-24T13:32:59.687Z,3.43
2022-11-24T13:38:54.916Z,5.00
2022-11-24T13:44:53.318Z,4.80
2022-11-24T13:51:16.205Z,4.70
2022-11-24T13:57:35.164Z,3.97
2022-11-24T14:03:32.657Z,3.87
2022-11-24T14:09:32.353Z,3.77
2022-11-24T14:15:29.880Z,4.60
2022-11-24T14:21:29.132Z,4.57
2022-11-24T14:27:29.867Z,4.73
2022-11-24T14:33:23.444Z,3.83
2022-11-24T14:39:19.116Z,3.83
2022-11-24T14:45:19.783Z,4.23
2022-11-24T14:51:16.882Z,4.00
2022-11-24T14:57:25.339Z,3.87
2022-11-24T15:03:20.508Z,4.17
2022-11-24T15:09:28.144Z,7.10
2022-11-24T15:15:25.184Z,5.07
2022-11-24T15:21:32.311Z,4.70
2022-11-24T15:27:25.735Z,3.10
2022-11-24T15:33:20.353Z,5.27
2022-11-24T15:39:15.298Z,5.20
2022-11-24T15:45:09.226Z,5.90
2022-11-24T15:51:04.690Z,4.83
2022-11-24T15:57:00.460Z,6.30
2022-11-24T16:02:53.583Z,6.20
2022-11-24T16:08:47.406Z,5.87
2022-11-24T16:14:42.512Z,4.17
2022-11-24T16:20:36.665Z,5.27
2022-11-24T16:26:30.060Z,5.00
2022-11-24T16:32:24.457Z,5.90
2022-11-24T16:38:18.471Z,6.20
2022-11-24T16:44:12.080Z,5.80
2022-11-24T16:50:08.618Z,4.30
2022-11-24T16:56:01.686Z,7.03
2022-11-24T17:01:55.256Z,6.23
2022-11-24T17:07:50.255Z,7.50
2022-11-24T17:13:46.641Z,9.50
2022-11-24T17:19:40.723Z,11.67
2022-11-24T17:25:35.192Z,13.07
2022-11-24T17:31:32.373Z,12.40
2022-11-24T17:37:25.959Z,8.60
2022-11-24T17:43:20.868Z,6.70
2022-11-24T17:49:14.855Z,8.00
2022-11-24T17:55:08.778Z,7.90
2022-11-24T18:01:03.814Z,7.70
2022-11-24T18:06:59.613Z,7.50
2022-11-24T18:12:53.178Z,9.57
2022-11-24T18:18:51.061Z,8.73
2022-11-24T18:24:44.716Z,8.33
2022-11-24T18:30:38.174Z,8.37
2022-11-24T18:36:33.600Z,8.53
2022-11-24T18:42:27.118Z,6.83
2022-11-24T18:48:21.331Z,7.10
2022-11-24T18:54:16.198Z,7.30
2022-11-24T19:00:11.857Z,6.47
2022-11-24T19:06:06.307Z,8.40
2022-11-24T19:12:01.144Z,7.60
2022-11-24T19:17:54.611Z,9.30
2022-11-24T19:23:48.083Z,14.83
2022-11-24T19:29:43.382Z,10.80
2022-11-24T19:35:36.944Z,9.40
2022-11-24T19:41:31.861Z,11.03
2022-11-24T19:47:28.154Z,11.17
2022-11-24T19:53:21.699Z,13.93
2022-11-24T19:59:15.851Z,11.30
2022-11-24T20:05:10.990Z,9.77
2022-11-24T20:11:05.123Z,6.80
2022-11-24T20:16:58.680Z,6.83
2022-11-24T20:22:53.483Z,6.13
2022-11-24T20:28:47.343Z,7.90
2022-11-24T20:34:40.805Z,8.70
2022-11-24T20:40:35.576Z,7.10
2022-11-24T20:46:30.724Z,7.30
2022-11-24T20:52:24.175Z,9.83
2022-11-24T20:58:18.588Z,10.37
2022-11-24T21:04:13.677Z,8.87
2022-11-24T21:10:08.148Z,8.83
2022-11-24T21:16:13.243Z,10.20
2022-11-24T21:22:06.912Z,12.00
2022-11-24T21:28:00.206Z,12.57
2022-11-24T21:33:55.890Z,13.03
2022-11-24T21:39:49.353Z,11.67
2022-11-24T21:45:42.878Z,11.70
2022-11-24T21:51:37.798Z,10.70
2022-11-24T21:57:31.077Z,10.27
2022-11-24T22:03:24.102Z,9.17
2022-11-24T22:09:19.096Z,10.20
2022-11-24T22:15:12.726Z,10.10
2022-11-24T22:21:06.754Z,8.47
2022-11-24T22:27:03.199Z,8.30
2022-11-24T22:32:56.637Z,8.60
2022-11-24T22:38:54.943Z,8.83
2022-11-24T22:44:49.848Z,8.10
2022-11-24T22:50:42.970Z,8.83
2022-11-24T22:56:35.924Z,8.00
2022-11-24T23:02:31.250Z,9.03
2022-11-24T23:08:24.728Z,8.80
2022-11-24T23:14:17.866Z,8.53
2022-11-24T23:20:14.634Z,9.87
2022-11-24T23:26:09.994Z,8.57
2022-11-24T23:32:03.463Z,8.90
2022-11-24T23:38:07.458Z,8.50
2022-11-24T23:44:01.674Z,7.60
2022-11-24T23:49:54.693Z,7.70
2022-11-24T23:55:55.515Z,7.77
